Time;durP1;ratioP1;P1;durP2;ratioP2;P2;SDS_P1;SDS_P2;PMS_P1;PMS_P2;Temp;Humidity;BMP_temperature;BMP_pressure;BME280_temperature;BME280_humidity;BME280_pressure;Samples;Min_cycle;Max_cycle;Signal;HPM_P1;HPM_P2
2022/07/04 00:02:13;;;;;;;1.07;0.93;;;;;;;15.33;100.00;101940.75;5000880;28;20201;-73
2022/07/04 00:04:38;;;;;;;1.53;1.20;;;;;;;15.38;100.00;101951.78;4997280;28;20209;-73
2022/07/04 00:07:04;;;;;;;2.17;1.20;;;;;;;15.26;100.00;101930.97;4999413;28;20223;-73
2022/07/04 00:09:29;;;;;;;1.57;1.00;;;;;;;15.31;100.00;101913.09;4980254;28;20268;-73
2022/07/04 00:11:55;;;;;;;2.60;1.00;;;;;;;15.60;100.00;101966.00;4999901;28;20181;-73
2022/07/04 00:14:20;;;;;;;3.03;1.30;;;;;;;15.07;100.00;101932.53;4997639;28;20281;-73
2022/07/04 00:16:46;;;;;;;2.50;1.00;;;;;;;15.30;100.00;101941.16;4996873;28;20196;-73
2022/07/04 00:19:11;;;;;;;4.03;1.30;;;;;;;15.58;100.00;101959.13;4983975;28;20300;-73
2022/07/04 00:21:37;;;;;;;1.77;1.20;;;;;;;15.27;100.00;101925.34;4994170;28;20729;-73
2022/07/04 00:24:02;;;;;;;2.50;0.90;;;;;;;15.30;100.00;101933.06;4999810;28;20213;-73
2022/07/04 00:26:27;;;;;;;1.70;1.10;;;;;;;15.50;100.00;101949.31;4995403;28;20268;-73
2022/07/04 00:28:53;;;;;;;1.67;1.13;;;;;;;15.29;100.00;101939.47;4980682;28;20720;-73
2022/07/04 00:31:19;;;;;;;1.03;0.93;;;;;;;15.41;100.00;101942.44;4998996;28;20224;-73
2022/07/04 00:33:44;;;;;;;2.27;1.20;;;;;;;15.50;100.00;101951.19;4997484;28;20490;-73
2022/07/04 00:36:10;;;;;;;3.90;1.67;;;;;;;15.44;100.00;101942.03;5000017;28;20192;-73
2022/07/04 00:38:35;;;;;;;4.10;1.37;;;;;;;14.82;100.00;101843.09;4997523;28;20256;-73
2022/07/04 00:41:01;;;;;;;4.33;1.73;;;;;;;15.25;100.00;101942.81;4997601;28;20184;-73
2022/07/04 00:43:27;;;;;;;3.03;1.40;;;;;;;15.31;100.00;101952.81;4998083;28;20201;-73
2022/07/04 00:45:53;;;;;;;2.20;1.20;;;;;;;15.31;100.00;101955.50;4980349;28;20583;-73
2022/07/04 00:48:19;;;;;;;3.70;1.47;;;;;;;14.39;100.00;101813.59;4997300;28;20535;-73
2022/07/04 00:50:48;;;;;;;2.40;1.37;;;;;;;15.45;100.00;101959.94;4995705;28;20194;-73
2022/07/04 00:53:18;;;;;;;2.70;1.40;;;;;;;15.05;100.00;101924.66;4998177;28;20208;-73
2022/07/04 00:55:45;;;;;;;3.03;1.33;;;;;;;15.19;100.00;101936.34;5017805;23;21084;-69
2022/07/04 00:58:12;;;;;;;2.33;1.27;;;;;;;15.17;100.00;101953.81;5017892;28;20447;-68
2022/07/04 01:00:38;;;;;;;2.17;1.10;;;;;;;15.20;100.00;101948.81;4998921;28;20439;-69
2022/07/04 01:03:03;;;;;;;2.97;1.40;;;;;;;14.94;100.00;101908.19;5019015;28;20864;-69
2022/07/04 01:05:29;;;;;;;3.90;1.40;;;;;;;14.83;100.00;101937.44;5014161;28;20554;-68
2022/07/04 01:07:54;;;;;;;5.20;2.00;;;;;;;15.00;100.00;101948.72;5011673;28;20289;-69
2022/07/04 01:10:20;;;;;;;3.90;1.20;;;;;;;14.46;100.00;101860.34;5009057;28;20231;-69
2022/07/04 01:12:45;;;;;;;3.20;1.37;;;;;;;15.06;100.00;101952.50;5009137;28;20204;-70
2022/07/04 01:15:10;;;;;;;4.50;1.63;;;;;;;14.62;100.00;101905.13;5007499;28;20560;-69
2022/07/04 01:17:36;;;;;;;2.63;1.30;;;;;;;15.01;100.00;101963.91;5007487;28;20294;-69
2022/07/04 01:20:02;;;;;;;5.07;1.77;;;;;;;14.74;100.00;101891.88;5010716;28;20188;-69
2022/07/04 01:22:28;;;;;;;2.67;1.63;;;;;;;14.90;100.00;101961.78;4993279;28;20815;-69
2022/07/04 01:24:53;;;;;;;2.23;1.50;;;;;;;14.70;100.00;101948.19;5011539;28;20476;-70
2022/07/04 01:27:19;;;;;;;4.93;1.50;;;;;;;14.44;100.00;101884.84;5011601;28;21009;-69
2022/07/04 01:29:45;;;;;;;3.20;1.43;;;;;;;14.45;100.00;101924.31;5007221;28;20195;-69
2022/07/04 01:32:10;;;;;;;4.73;1.50;;;;;;;14.99;100.00;101960.59;5009841;28;20247;-69
2022/07/04 01:34:36;;;;;;;4.00;1.37;;;;;;;14.97;100.00;101962.66;5010834;28;20208;-69
2022/07/04 01:37:02;;;;;;;2.40;1.40;;;;;;;14.87;100.00;101952.22;5015058;28;20184;-69
2022/07/04 01:39:28;;;;;;;1.43;1.17;;;;;;;14.73;100.00;101926.16;5013798;28;20580;-70
2022/07/04 01:41:55;;;;;;;3.27;1.40;;;;;;;14.98;100.00;101956.19;5011808;28;20439;-69
2022/07/04 01:44:20;;;;;;;2.37;1.10;;;;;;;14.92;100.00;101963.22;5011670;28;20627;-70
2022/07/04 01:46:46;;;;;;;3.70;1.70;;;;;;;14.86;100.00;101949.69;5015475;28;20537;-70
2022/07/04 01:49:11;;;;;;;6.93;1.10;;;;;;;14.58;100.00;101925.44;5012120;28;20193;-70
2022/07/04 01:51:44;;;;;;;2.70;1.27;;;;;;;14.84;100.00;101958.03;5013723;28;20212;-70
2022/07/04 01:54:10;;;;;;;9.30;1.90;;;;;;;14.62;100.00;101899.72;5015322;28;20242;-70
2022/07/04 01:56:35;;;;;;;4.43;1.10;;;;;;;14.66;100.00;101944.19;5014605;28;20455;-70
2022/07/04 01:59:03;;;;;;;1.67;1.10;;;;;;;14.58;100.00;101911.94;5016029;28;20881;-69
2022/07/04 02:01:29;;;;;;;4.67;1.30;;;;;;;14.96;100.00;101949.34;5017333;28;20662;-69
2022/07/04 02:03:55;;;;;;;2.80;1.10;;;;;;;14.52;100.00;101896.53;5014318;28;20478;-69
2022/07/04 02:06:20;;;;;;;3.20;1.17;;;;;;;14.91;100.00;101944.53;4983393;28;20204;-69
2022/07/04 02:13:00;;;;;;;1.67;1.20;;;;;;;14.54;100.00;101889.09;5014225;28;20250;-70
2022/07/04 02:14:15;;;;;;;2.40;1.07;;;;;;;14.86;100.00;101945.13;5015718;28;20520;-69
2022/07/04 02:16:40;;;;;;;4.00;1.47;;;;;;;14.83;100.00;101940.13;5010747;28;20862;-69
2022/07/04 02:19:06;;;;;;;1.70;1.00;;;;;;;14.97;100.00;101932.09;5013922;28;20185;-70
2022/07/04 02:21:31;;;;;;;1.70;1.20;;;;;;;14.65;100.00;101915.53;5011260;28;20225;-70
2022/07/04 02:23:56;;;;;;;3.23;1.37;;;;;;;14.73;100.00;101919.94;5016648;28;20205;-69
2022/07/04 02:26:22;;;;;;;2.83;1.27;;;;;;;14.78;100.00;101901.25;5011392;28;20207;-70
2022/07/04 02:28:47;;;;;;;1.43;1.13;;;;;;;14.82;100.00;101933.06;5013654;28;20186;-70
2022/07/04 02:31:13;;;;;;;2.53;1.20;;;;;;;14.79;100.00;101943.44;5013456;28;20277;-69
2022/07/04 02:33:38;;;;;;;1.33;1.20;;;;;;;14.29;100.00;101876.06;5013689;28;20186;-69
2022/07/04 02:36:04;;;;;;;3.37;1.47;;;;;;;14.10;100.00;101818.22;5012658;28;20213;-69
2022/07/04 02:38:29;;;;;;;2.37;1.50;;;;;;;13.76;100.00;101774.00;5011123;28;20300;-70
2022/07/04 02:40:55;;;;;;;2.33;1.03;;;;;;;14.55;100.00;101928.53;5011734;28;20196;-70
2022/07/04 02:43:20;;;;;;;3.97;1.50;;;;;;;14.45;100.00;101912.69;5011885;28;20227;-69
2022/07/04 02:45:46;;;;;;;1.80;1.00;;;;;;;14.41;100.00;101900.63;5011763;28;20209;-70
2022/07/04 02:48:11;;;;;;;2.60;1.10;;;;;;;14.65;100.00;101932.56;5009757;28;20672;-70
2022/07/04 02:50:37;;;;;;;2.57;1.00;;;;;;;14.35;100.00;101939.16;5012035;28;20704;-69
2022/07/04 02:53:02;;;;;;;2.37;1.13;;;;;;;14.24;100.00;101900.09;5006442;28;20193;-70
2022/07/04 02:55:27;;;;;;;3.70;1.60;;;;;;;14.28;100.00;101914.84;5012926;28;20236;-70
2022/07/04 02:57:53;;;;;;;2.30;1.47;;;;;;;14.27;100.00;101928.56;5012230;28;20248;-70
2022/07/04 03:00:18;;;;;;;3.57;1.47;;;;;;;13.99;100.00;101878.94;5014146;28;20247;-70
2022/07/04 03:02:44;;;;;;;2.03;1.00;;;;;;;14.43;100.00;101920.97;4995963;28;20636;-70
2022/07/04 03:05:09;;;;;;;1.83;1.30;;;;;;;14.41;100.00;101930.31;5014943;28;20228;-70
2022/07/04 03:07:34;;;;;;;4.30;1.17;;;;;;;14.56;100.00;101933.75;5011902;28;20192;-70
2022/07/04 03:10:00;;;;;;;1.77;1.33;;;;;;;14.44;100.00;101919.94;5012421;28;20654;-70
2022/07/04 03:12:25;;;;;;;1.97;1.63;;;;;;;14.37;100.00;101946.03;5011072;28;20198;-70
2022/07/04 03:14:53;;;;;;;3.23;1.40;;;;;;;14.21;100.00;101851.91;5013805;28;20740;-70
2022/07/04 03:17:19;;;;;;;5.90;2.00;;;;;;;14.71;100.00;101924.69;5011455;28;20200;-70
2022/07/04 03:19:44;;;;;;;5.20;1.73;;;;;;;14.20;100.00;101864.59;5009134;28;21027;-70
2022/07/04 03:22:10;;;;;;;5.30;1.83;;;;;;;14.16;100.00;101892.16;5012757;28;20435;-70
2022/07/04 03:24:35;;;;;;;3.20;1.80;;;;;;;14.54;100.00;101946.63;5009750;28;20209;-70
2022/07/04 03:27:01;;;;;;;2.30;1.40;;;;;;;14.50;100.00;101914.78;4981226;28;20207;-70
2022/07/04 03:29:26;;;;;;;6.50;2.03;;;;;;;14.49;100.00;101938.22;5011135;28;20181;-70
2022/07/04 03:31:52;;;;;;;6.70;2.47;;;;;;;14.14;100.00;101840.25;5011006;28;20533;-70
2022/07/04 03:34:17;;;;;;;4.27;2.00;;;;;;;14.53;100.00;101942.25;5013146;28;20264;-70
2022/07/04 03:36:43;;;;;;;2.70;1.50;;;;;;;14.62;100.00;101919.47;5011035;28;22744;-70
2022/07/04 03:39:08;;;;;;;4.43;1.80;;;;;;;14.37;100.00;101878.56;5000167;28;20197;-70
2022/07/04 03:41:36;;;;;;;3.37;1.83;;;;;;;14.23;100.00;101860.63;5011015;28;20195;-70
2022/07/04 03:44:01;;;;;;;3.30;1.90;;;;;;;14.49;100.00;101930.13;5010878;28;20204;-70
2022/07/04 03:46:27;;;;;;;3.23;1.70;;;;;;;14.11;100.00;101875.72;4992940;28;20490;-71
2022/07/04 03:48:53;;;;;;;2.20;1.80;;;;;;;14.53;100.00;101953.06;4993964;28;20189;-70
2022/07/04 03:51:18;;;;;;;3.00;1.90;;;;;;;13.91;100.00;101848.59;5014575;28;20188;-70
2022/07/04 03:53:44;;;;;;;3.97;1.80;;;;;;;14.62;100.00;101951.03;5012610;28;20444;-70
2022/07/04 03:56:09;;;;;;;4.90;2.23;;;;;;;14.53;100.00;101947.66;5014215;28;20219;-70
2022/07/04 03:58:35;;;;;;;4.27;2.03;;;;;;;14.31;100.00;101917.16;5009346;28;20189;-70
2022/07/04 04:01:01;;;;;;;4.37;2.40;;;;;;;14.08;100.00;101863.44;5011620;28;20277;-70
2022/07/04 04:06:10;;;;;;;2.43;1.70;;;;;;;14.79;100.00;101962.34;5013745;28;20224;-70
2022/07/04 04:08:35;;;;;;;6.40;2.13;;;;;;;14.34;100.00;101951.84;5012319;28;20444;-70
2022/07/04 04:11:01;;;;;;;4.47;1.97;;;;;;;14.19;100.00;101897.97;5010059;28;20230;-71
2022/07/04 04:13:26;;;;;;;2.53;1.70;;;;;;;14.79;100.00;101979.38;5008285;28;20189;-70
2022/07/04 04:15:52;;;;;;;3.57;2.47;;;;;;;14.66;100.00;101969.31;4997780;28;20200;-70
2022/07/04 04:18:17;;;;;;;4.70;1.90;;;;;;;14.59;100.00;101948.72;5008480;28;20192;-70
2022/07/04 04:20:42;;;;;;;3.47;1.80;;;;;;;14.66;100.00;101972.03;4982181;28;20592;-70
2022/07/04 04:23:08;;;;;;;5.97;2.40;;;;;;;14.42;100.00;101948.16;5008205;28;20189;-70
2022/07/04 04:25:33;;;;;;;3.63;1.83;;;;;;;14.71;100.00;101957.94;5005179;28;20208;-70
2022/07/04 04:27:59;;;;;;;5.03;2.10;;;;;;;14.33;100.00;101898.06;5012714;28;20649;-70
2022/07/04 04:30:24;;;;;;;2.83;1.93;;;;;;;14.66;100.00;101923.41;5008991;28;20263;-71
2022/07/04 04:32:50;;;;;;;3.50;1.83;;;;;;;14.28;100.00;101860.88;5003347;28;20660;-70
2022/07/04 04:35:15;;;;;;;5.47;2.57;;;;;;;14.85;100.00;101938.06;5007909;28;20717;-70
2022/07/04 04:37:40;;;;;;;2.50;2.20;;;;;;;14.76;100.00;101912.25;4999149;28;20203;-70
2022/07/04 04:40:06;;;;;;;4.50;2.07;;;;;;;15.20;100.00;101965.03;5007755;28;20211;-72
2022/07/04 04:42:32;;;;;;;4.83;2.70;;;;;;;14.65;100.00;101886.66;5010291;28;20232;-70
2022/07/04 04:44:58;;;;;;;5.70;2.30;;;;;;;14.89;100.00;101955.53;5007501;28;20482;-72
2022/07/04 04:47:23;;;;;;;4.50;2.33;;;;;;;15.01;100.00;101941.47;5012631;28;20658;-72
2022/07/04 04:49:48;;;;;;;3.93;2.27;;;;;;;15.18;100.00;101960.84;5009837;28;20193;-70
2022/07/04 04:52:14;;;;;;;4.40;2.33;;;;;;;14.51;100.00;101855.19;5006236;28;20658;-71
2022/07/04 04:54:39;;;;;;;5.93;2.20;;;;;;;14.87;100.00;101921.69;5010697;28;20308;-71
2022/07/04 04:57:05;;;;;;;4.37;2.33;;;;;;;15.28;100.00;101964.84;5008292;28;20196;-71
2022/07/04 04:59:31;;;;;;;4.03;1.70;;;;;;;15.11;100.00;101901.41;5005485;28;21102;-70
2022/07/04 05:01:57;;;;;;;5.43;2.17;;;;;;;14.97;100.00;101878.91;5009080;28;20191;-70
2022/07/04 05:04:23;;;;;;;2.83;2.20;;;;;;;15.34;100.00;101930.78;5008122;28;20205;-71
2022/07/04 05:06:48;;;;;;;3.00;1.50;;;;;;;15.64;100.00;101955.59;5005491;28;20454;-71
2022/07/04 05:09:14;;;;;;;3.53;2.20;;;;;;;15.21;100.00;101895.59;5015638;28;20251;-71
2022/07/04 05:11:39;;;;;;;8.30;2.57;;;;;;;15.23;100.00;101934.06;5009504;28;20193;-71
2022/07/04 05:14:05;;;;;;;3.90;2.33;;;;;;;15.48;100.00;101973.03;4997851;28;20640;-71
2022/07/04 05:16:30;;;;;;;5.17;2.03;;;;;;;15.50;100.00;101973.66;5014432;28;20204;-72
2022/07/04 05:18:56;;;;;;;7.97;2.33;;;;;;;15.52;100.00;101968.03;5014895;28;20193;-72
2022/07/04 05:21:21;;;;;;;9.50;2.37;;;;;;;15.11;100.00;101896.00;5011832;28;20184;-72
2022/07/04 05:23:47;;;;;;;5.53;2.37;;;;;;;15.07;100.00;101917.19;5015641;28;20201;-72
2022/07/04 05:26:12;;;;;;;3.57;2.10;;;;;;;15.55;100.00;101940.59;5015548;28;20216;-71
2022/07/04 05:28:38;;;;;;;2.00;1.63;;;;;;;15.27;100.00;101889.38;5004201;28;20240;-71
2022/07/04 05:31:03;;;;;;;4.83;2.10;;;;;;;15.31;100.00;101896.03;5013063;28;20242;-71
2022/07/04 05:33:28;;;;;;;5.70;2.17;;;;;;;15.09;100.00;101898.06;5012904;28;20191;-71
2022/07/04 05:35:54;;;;;;;5.10;2.50;;;;;;;15.13;100.00;101904.75;4995632;28;20200;-71
2022/07/04 05:38:19;;;;;;;5.53;2.43;;;;;;;15.62;100.00;101967.66;5012950;28;20200;-71
2022/07/04 05:40:45;;;;;;;3.10;2.43;;;;;;;15.66;100.00;101977.84;5012310;28;20673;-72
2022/07/04 05:43:11;;;;;;;4.90;3.10;;;;;;;15.31;100.00;101918.50;5014079;28;20189;-70
2022/07/04 05:45:37;;;;;;;3.43;2.30;;;;;;;15.80;100.00;101986.88;5014529;28;20596;-70
2022/07/04 05:48:03;;;;;;;8.63;3.00;;;;;;;15.47;100.00;101962.41;5014893;28;20439;-70
2022/07/04 05:50:28;;;;;;;6.00;2.20;;;;;;;15.70;100.00;101959.38;4983770;28;20207;-71
2022/07/04 05:52:54;;;;;;;9.00;3.07;;;;;;;16.12;100.00;101982.53;5013140;28;20207;-71
2022/07/04 05:55:19;;;;;;;4.70;2.60;;;;;;;16.02;100.00;101945.03;5013305;28;20651;-71
2022/07/04 05:57:44;;;;;;;6.20;2.60;;;;;;;16.14;100.00;101964.22;5014535;28;20678;-71
2022/07/04 06:00:11;;;;;;;8.20;2.40;;;;;;;16.15;100.00;101955.03;5014321;28;20197;-71
2022/07/04 06:02:37;;;;;;;3.33;1.87;;;;;;;16.27;100.00;101963.38;5013691;28;20184;-72
2022/07/04 06:05:03;;;;;;;4.83;1.87;;;;;;;15.98;100.00;101970.03;5015175;28;20851;-71
2022/07/04 06:07:28;;;;;;;5.33;2.27;;;;;;;15.89;100.00;101971.28;5015155;28;20192;-71
2022/07/04 06:09:53;;;;;;;4.43;2.23;;;;;;;15.75;100.00;101929.84;5012226;28;20189;-71
2022/07/04 06:12:19;;;;;;;3.63;2.03;;;;;;;15.96;100.00;101967.53;5013180;28;20177;-71
2022/07/04 06:14:45;;;;;;;5.80;2.53;;;;;;;15.85;100.00;101978.94;5013623;28;20193;-71
2022/07/04 06:17:11;;;;;;;3.87;2.40;;;;;;;15.87;100.00;101973.34;5012592;28;20188;-72
2022/07/04 06:19:37;;;;;;;4.20;1.90;;;;;;;16.17;100.00;101980.03;5012539;28;20439;-71
2022/07/04 06:22:03;;;;;;;5.17;2.10;;;;;;;16.10;100.00;101986.47;5001888;28;20569;-71
2022/07/04 06:24:29;;;;;;;3.80;2.33;;;;;;;16.34;100.00;101982.31;5018358;28;20482;-71
2022/07/04 06:26:54;;;;;;;5.47;2.40;;;;;;;16.28;100.00;101956.91;4998808;28;20430;-72
2022/07/04 06:29:19;;;;;;;7.47;2.83;;;;;;;16.10;100.00;101957.53;5017175;28;20211;-71
2022/07/04 06:31:45;;;;;;;4.70;1.90;;;;;;;16.41;100.00;101989.41;5013833;28;20192;-71
2022/07/04 06:36:55;;;;;;;4.93;2.17;;;;;;;16.26;100.00;102003.16;5014886;28;20191;-72
2022/07/04 06:39:20;;;;;;;3.13;2.07;;;;;;;16.24;100.00;101971.91;5013908;28;20431;-71
2022/07/04 06:41:45;;;;;;;5.13;2.60;;;;;;;16.21;100.00;101992.09;5012860;28;20248;-70
2022/07/04 06:44:11;;;;;;;12.03;2.80;;;;;;;16.25;100.00;101985.22;5015522;28;20258;-71
2022/07/04 06:46:36;;;;;;;5.43;2.10;;;;;;;15.97;100.00;101946.72;5013831;28;20279;-71
2022/07/04 06:49:02;;;;;;;7.27;2.80;;;;;;;16.28;100.00;101997.50;5015182;28;20197;-71
2022/07/04 06:51:27;;;;;;;5.70;2.60;;;;;;;16.47;100.00;101987.72;5016024;28;20181;-71
2022/07/04 06:53:53;;;;;;;8.60;2.77;;;;;;;16.35;100.00;101930.66;5017550;28;20181;-71
2022/07/04 06:56:19;;;;;;;6.30;3.10;;;;;;;16.73;100.00;101981.44;5015104;28;20246;-70
2022/07/04 06:58:44;;;;;;;8.20;2.97;;;;;;;16.67;100.00;101982.28;5001259;28;20183;-70
2022/07/04 07:01:10;;;;;;;8.37;2.80;;;;;;;16.34;100.00;101923.56;5018175;28;20272;-71
2022/07/04 07:03:36;;;;;;;5.40;2.40;;;;;;;16.57;100.00;101944.78;5015881;28;20244;-72
2022/07/04 07:06:02;;;;;;;9.03;2.13;;;;;;;16.67;100.00;101925.41;5015528;28;20282;-71
2022/07/04 07:08:29;;;;;;;6.50;2.30;;;;;;;16.37;100.00;101887.13;5013829;28;20428;-69
2022/07/04 07:10:55;;;;;;;4.17;2.60;;;;;;;16.87;100.00;101934.31;5014445;28;20431;-70
2022/07/04 07:13:21;;;;;;;3.03;1.60;;;;;;;16.76;100.00;101888.06;5016743;28;20511;-70
2022/07/04 07:15:46;;;;;;;7.17;2.00;;;;;;;17.00;100.00;101884.63;5017294;28;20889;-70
2022/07/04 07:18:12;;;;;;;3.00;1.60;;;;;;;17.66;100.00;101953.09;5011880;28;20191;-70
2022/07/04 07:20:37;;;;;;;3.47;1.50;;;;;;;17.52;100.00;101949.66;5014312;28;20188;-70
2022/07/04 07:23:04;;;;;;;8.33;2.07;;;;;;;17.55;100.00;101946.50;5012162;28;20871;-70
2022/07/04 07:25:30;;;;;;;5.80;1.60;;;;;;;17.32;100.00;101903.66;5012136;28;20291;-70
2022/07/04 07:27:56;;;;;;;5.73;2.30;;;;;;;17.26;100.00;101889.09;5014715;28;20474;-71
2022/07/04 07:30:21;;;;;;;9.10;1.80;;;;;;;17.61;100.00;101970.03;5014174;28;20472;-70
2022/07/04 07:32:46;;;;;;;6.60;1.77;;;;;;;17.43;100.00;101918.41;5015344;28;20246;-70
2022/07/04 07:35:12;;;;;;;4.17;1.63;;;;;;;17.47;100.00;101900.63;4986459;28;20579;-71
2022/07/04 07:37:37;;;;;;;3.13;1.30;;;;;;;17.80;100.00;101950.13;5017201;28;20264;-71
2022/07/04 07:40:03;;;;;;;4.10;1.50;;;;;;;17.92;100.00;101916.84;5017250;28;20189;-71
2022/07/04 07:42:29;;;;;;;3.43;1.50;;;;;;;17.75;100.00;101914.63;5016347;28;20274;-68
2022/07/04 07:44:54;;;;;;;3.90;1.60;;;;;;;17.43;100.00;101866.88;5018837;23;20581;-75
2022/07/04 07:47:20;;;;;;;6.30;2.07;;;;;;;17.82;100.00;101892.91;5001952;28;20189;-73
2022/07/04 07:49:47;;;;;;;2.93;1.60;;;;;;;17.91;100.00;101955.91;5003935;28;20228;-74
2022/07/04 07:52:13;;;;;;;3.07;1.90;;;;;;;18.22;100.00;101952.28;4999985;28;20704;-74
2022/07/04 07:54:38;;;;;;;3.63;1.40;;;;;;;17.77;100.00;101885.41;4999985;28;20459;-74
2022/07/04 07:57:05;;;;;;;2.53;1.40;;;;;;;18.05;100.00;101933.84;5002896;28;20435;-75
2022/07/04 07:59:30;;;;;;;5.87;2.47;;;;;;;18.17;100.00;101947.53;5000901;28;20272;-75
2022/07/04 08:01:55;;;;;;;2.53;1.67;;;;;;;17.61;100.00;101899.50;5003641;28;20507;-75
2022/07/04 08:04:37;;;;;;;3.30;1.77;;;;;;;17.91;100.00;101909.75;5002826;28;20328;-75
2022/07/04 08:07:11;;;;;;;3.50;1.93;;;;;;;18.31;100.00;101945.50;4989929;28;20174;-75
2022/07/04 08:09:37;;;;;;;3.60;1.53;;;;;;;18.62;100.00;101943.75;4999977;28;20440;-74
2022/07/04 08:12:05;;;;;;;1.80;1.13;;;;;;;17.80;100.00;101847.00;5002047;28;20431;-75
2022/07/04 08:14:31;;;;;;;2.43;1.50;;;;;;;17.98;100.00;101913.22;5003906;28;20534;-76
2022/07/04 08:16:58;;;;;;;4.67;1.57;;;;;;;18.45;100.00;101946.22;5002349;28;20786;-79
2022/07/04 08:19:24;;;;;;;2.53;1.40;;;;;;;18.46;100.00;101942.47;5002540;28;20457;-74
2022/07/04 08:21:50;;;;;;;2.70;1.30;;;;;;;18.22;100.00;101887.09;5002842;28;20910;-72
2022/07/04 08:24:16;;;;;;;3.70;1.17;;;;;;;18.38;100.00;101900.13;4999563;28;21007;-73
2022/07/04 08:26:45;;;;;;;5.40;2.00;;;;;;;18.41;100.00;101939.59;5003580;28;20510;-74
2022/07/04 08:29:20;;;;;;;1.63;1.30;;;;;;;18.09;100.00;101862.81;5002667;28;20247;-73
2022/07/04 08:31:46;;;;;;;2.70;1.20;;;;;;;18.52;100.00;101941.56;5001891;28;20456;-74
2022/07/04 08:34:11;;;;;;;2.60;1.30;;;;;;;18.42;100.00;101943.94;5002416;28;20437;-74
2022/07/04 08:36:37;;;;;;;5.63;1.67;;;;;;;17.88;100.00;101907.47;5002599;28;20938;-74
2022/07/04 08:39:02;;;;;;;7.33;1.77;;;;;;;18.01;100.00;101948.06;5003042;28;20231;-75
2022/07/04 08:41:35;;;;;;;2.30;1.90;;;;;;;18.06;100.00;101927.34;5001870;28;20626;-75
2022/07/04 08:44:02;;;;;;;3.83;1.40;;;;;;;18.21;100.00;101937.06;5001111;28;20693;-74
2022/07/04 08:46:28;;;;;;;2.20;1.33;;;;;;;18.33;100.00;101926.28;5001306;28;20421;-73
2022/07/04 08:48:55;;;;;;;5.87;1.60;;;;;;;18.37;100.00;101941.06;5002018;28;20535;-72
2022/07/04 08:51:41;;;;;;;3.50;2.00;;;;;;;17.67;100.00;101912.19;4999811;28;20938;-74
2022/07/04 08:58:25;;;;;;;5.70;1.90;;;;;;;17.74;100.00;101940.13;5002519;28;20448;-75
2022/07/04 08:59:40;;;;;;;5.17;1.47;;;;;;;17.27;100.00;101870.94;5002527;28;20427;-74
2022/07/04 09:02:06;;;;;;;2.37;1.47;;;;;;;17.05;100.00;101857.72;5002693;28;20474;-74
2022/07/04 09:04:32;;;;;;;6.13;2.03;;;;;;;17.23;100.00;101897.66;5001506;28;21107;-71
2022/07/04 09:06:57;;;;;;;4.30;1.50;;;;;;;17.59;100.00;101959.41;4999564;28;20534;-72
2022/07/04 09:09:25;;;;;;;3.17;1.30;;;;;;;17.62;100.00;101961.69;5001310;28;20185;-72
2022/07/04 09:11:51;;;;;;;5.47;1.70;;;;;;;17.15;100.00;101896.06;5000076;28;20194;-72
2022/07/04 09:14:16;;;;;;;3.83;1.93;;;;;;;17.60;100.00;101971.09;5001497;28;20455;-71
2022/07/04 09:16:42;;;;;;;7.73;1.63;;;;;;;17.53;100.00;101986.56;4999305;28;20611;-70
2022/07/04 09:19:19;;;;;;;4.43;2.07;;;;;;;17.32;100.00;101996.69;5002317;28;20199;-69
2022/07/04 09:21:47;;;;;;;4.30;1.87;;;;;;;17.13;100.00;101982.16;5001601;28;20194;-70
2022/07/04 09:24:13;;;;;;;3.57;1.93;;;;;;;16.63;100.00;101916.00;4999830;28;20476;-70
2022/07/04 09:26:46;;;;;;;3.90;1.87;;;;;;;16.90;100.00;101955.56;5001113;28;20968;-71
2022/07/04 09:29:12;;;;;;;5.60;1.70;;;;;;;16.96;100.00;101951.19;5000618;28;20440;-74
2022/07/04 09:31:38;;;;;;;4.83;1.50;;;;;;;17.35;100.00;101979.97;5000150;28;21144;-71
2022/07/04 09:34:05;;;;;;;3.37;1.30;;;;;;;17.32;100.00;101968.72;5001976;28;20448;-71
2022/07/04 09:36:39;;;;;;;3.30;1.87;;;;;;;17.73;100.00;101998.13;4998943;28;20870;-71
2022/07/04 09:39:15;;;;;;;3.63;1.80;;;;;;;17.82;100.00;102004.19;5000101;28;20493;-72
2022/07/04 09:41:52;;;;;;;4.60;1.90;;;;;;;17.96;100.00;101961.47;4998607;28;20447;-72
2022/07/04 09:44:18;;;;;;;2.40;1.70;;;;;;;18.54;100.00;102001.91;4998907;28;20500;-72
2022/07/04 09:46:44;;;;;;;1.90;1.63;;;;;;;18.67;100.00;101990.94;4997091;28;20964;-72
2022/07/04 09:49:10;;;;;;;4.33;1.90;;;;;;;18.67;100.00;101990.09;5000023;28;20448;-72
2022/07/04 09:52:03;;;;;;;5.30;2.03;;;;;;;18.62;100.00;101984.50;5001906;28;20274;-74
2022/07/04 09:54:31;;;;;;;5.80;2.40;;;;;;;18.50;100.00;101998.00;4980300;28;20455;-73
2022/07/04 09:57:02;;;;;;;3.33;1.40;;;;;;;18.42;100.00;101965.69;5004485;28;20801;-74
2022/07/04 09:59:29;;;;;;;1.60;1.20;;;;;;;18.00;100.00;101920.09;5005144;28;20434;-72
2022/07/04 10:02:07;;;;;;;3.00;1.80;;;;;;;18.44;100.00;101971.72;5001922;28;20424;-74
2022/07/04 10:04:45;;;;;;;4.70;1.80;;;;;;;18.26;100.00;101954.34;5002994;28;20483;-73
2022/07/04 10:07:10;;;;;;;1.97;1.20;;;;;;;18.34;100.00;101974.09;5004814;28;20427;-73
2022/07/04 10:09:36;;;;;;;2.20;1.37;;;;;;;17.92;100.00;101903.28;5004233;28;20566;-73
2022/07/04 10:12:01;;;;;;;3.70;1.23;;;;;;;18.40;100.00;101970.50;5004651;28;20189;-74
2022/07/04 10:14:27;;;;;;;1.03;0.93;;;;;;;18.51;100.00;101954.31;5004303;28;20227;-73
2022/07/04 10:16:53;;;;;;;2.13;1.13;;;;;;;18.36;100.00;101928.56;5004814;28;20188;-74
2022/07/04 10:19:20;;;;;;;2.37;1.13;;;;;;;18.40;100.00;101941.47;5005011;28;20189;-73
2022/07/04 10:21:46;;;;;;;5.40;1.40;;;;;;;18.18;100.00;101960.03;5004002;28;20228;-73
2022/07/04 10:24:12;;;;;;;4.10;1.73;;;;;;;18.45;100.00;101968.78;5004498;28;20513;-73
2022/07/04 10:26:38;;;;;;;2.73;1.40;;;;;;;18.34;100.00;101952.38;5006018;28;20185;-74
2022/07/04 10:29:03;;;;;;;1.20;1.07;;;;;;;18.66;100.00;101906.91;5005836;28;20271;-74
2022/07/04 10:31:30;;;;;;;2.70;1.30;;;;;;;19.09;100.00;101952.22;5003882;28;20512;-73
2022/07/04 10:33:58;;;;;;;1.97;1.20;;;;;;;19.28;100.00;101942.97;5003528;28;20287;-74
2022/07/04 10:36:28;;;;;;;0.97;0.87;;;;;;;19.30;100.00;101942.75;5005503;28;20481;-74
2022/07/04 10:38:59;;;;;;;1.50;0.90;;;;;;;19.24;100.00;101943.66;5003753;28;20473;-74
2022/07/04 10:41:27;;;;;;;3.03;0.87;;;;;;;18.93;100.00;101902.03;5003412;28;20431;-74
2022/07/04 10:43:57;;;;;;;2.03;1.07;;;;;;;19.15;100.00;101941.28;5002589;28;20479;-74
2022/07/04 10:46:22;;;;;;;1.30;0.70;;;;;;;19.32;100.00;101927.00;5004573;28;20423;-74
2022/07/04 10:48:58;;;;;;;1.50;1.07;;;;;;;19.38;100.00;101929.66;5004201;28;20443;-74
2022/07/04 10:51:45;;;;;;;1.10;0.80;;;;;;;19.52;100.00;101926.72;5002341;28;20244;-73
2022/07/04 10:54:21;;;;;;;2.13;0.80;;;;;;;19.53;100.00;101904.75;5003921;28;20474;-74
2022/07/04 10:57:11;;;;;;;3.00;1.20;;;;;;;19.07;100.00;101851.03;5004187;28;20450;-75
2022/07/04 10:59:36;;;;;;;1.90;0.70;;;;;;;19.29;100.00;101873.06;5004899;28;20427;-74
2022/07/04 11:02:09;;;;;;;1.63;1.00;;;;;;;19.47;100.00;101919.28;4988267;28;20455;-74
2022/07/04 11:05:03;;;;;;;3.37;1.10;;;;;;;19.35;100.00;101915.66;5000527;28;20216;-75
2022/07/04 11:07:39;;;;;;;2.00;0.60;;;;;;;19.69;100.00;101908.69;5002561;28;20424;-72
2022/07/04 11:10:11;;;;;;;1.73;0.80;;;;;;;19.94;100.00;101905.78;5002161;28;20967;-73
2022/07/04 11:12:57;;;;;;;0.80;0.70;;;;;;;20.20;100.00;101900.94;5002639;28;20433;-73
2022/07/04 11:15:28;;;;;;;2.07;0.80;;;;;;;19.84;100.00;101911.78;4991170;28;20444;-73
2022/07/04 11:18:00;;;;;;;2.03;1.00;;;;;;;19.77;100.00;101907.53;5001467;28;20428;-73
2022/07/04 11:20:27;;;;;;;0.80;0.70;;;;;;;20.01;100.00;101914.66;5003197;28;20507;-73
2022/07/04 11:23:03;;;;;;;1.63;0.70;;;;;;;19.87;100.00;101850.59;5003167;28;20908;-73
2022/07/04 11:25:29;;;;;;;4.10;1.10;;;;;;;19.91;100.00;101908.97;5005754;28;20467;-73
2022/07/04 11:27:54;;;;;;;0.90;0.70;;;;;;;19.50;100.00;101867.13;5003037;28;20514;-73